sensor_id;sensor_type;location;lat;lon;timestamp;pressure;altitude;pressure_sealevel;temperature;humidity
9335;BME280;4706;41.844;26.082;2022-08-11T00:01:12;100586.06;;;28.38;39.78
9335;BME280;4706;41.844;26.082;2022-08-11T00:03:43;100588.13;;;28.30;40.00
9335;BME280;4706;41.844;26.082;2022-08-11T00:06:11;100583.28;;;28.30;39.86
9335;BME280;4706;41.844;26.082;2022-08-11T00:08:39;100594.63;;;28.27;39.97
9335;BME280;4706;41.844;26.082;2022-08-11T00:11:08;100581.41;;;28.17;40.21
9335;BME280;4706;41.844;26.082;2022-08-11T00:13:40;100550.50;;;28.02;40.31
9335;BME280;4706;41.844;26.082;2022-08-11T00:16:26;100587.47;;;28.19;40.09
9335;BME280;4706;41.844;26.082;2022-08-11T00:18:54;100577.94;;;28.02;40.26
9335;BME280;4706;41.844;26.082;2022-08-11T00:21:21;100600.13;;;28.07;40.21
9335;BME280;4706;41.844;26.082;2022-08-11T00:23:57;100591.25;;;28.05;40.40
9335;BME280;4706;41.844;26.082;2022-08-11T00:26:25;100592.03;;;28.05;40.32
9335;BME280;4706;41.844;26.082;2022-08-11T00:28:52;100590.13;;;27.99;40.59
9335;BME280;4706;41.844;26.082;2022-08-11T00:31:28;100590.19;;;27.92;40.69
9335;BME280;4706;41.844;26.082;2022-08-11T00:33:56;100605.63;;;27.83;40.45
9335;BME280;4706;41.844;26.082;2022-08-11T00:36:27;100598.78;;;27.77;40.71
9335;BME280;4706;41.844;26.082;2022-08-11T00:39:01;100599.66;;;27.67;40.66
9335;BME280;4706;41.844;26.082;2022-08-11T00:41:33;100598.81;;;27.74;40.30
9335;BME280;4706;41.844;26.082;2022-08-11T00:47:07;100597.25;;;27.17;41.41
9335;BME280;4706;41.844;26.082;2022-08-11T01:04:12;100599.94;;;27.35;41.72
9335;BME280;4706;41.844;26.082;2022-08-11T01:23:06;100604.47;;;27.22;42.49
9335;BME280;4706;41.844;26.082;2022-08-11T01:45:33;100621.06;;;27.09;43.19
9335;BME280;4706;41.844;26.082;2022-08-11T01:51:24;100615.44;;;27.09;43.14
9335;BME280;4706;41.844;26.082;2022-08-11T01:54:30;100617.91;;;26.93;43.65
9335;BME280;4706;41.844;26.082;2022-08-11T01:59:53;100616.72;;;26.97;43.89
9335;BME280;4706;41.844;26.082;2022-08-11T02:10:57;100621.63;;;26.82;44.30
9335;BME280;4706;41.844;26.082;2022-08-11T02:23:03;100623.28;;;26.73;44.90
9335;BME280;4706;41.844;26.082;2022-08-11T02:26:22;100621.66;;;26.75;44.48
9335;BME280;4706;41.844;26.082;2022-08-11T02:53:31;100621.41;;;26.30;45.45
9335;BME280;4706;41.844;26.082;2022-08-11T02:56:13;100628.28;;;26.15;45.61
9335;BME280;4706;41.844;26.082;2022-08-11T02:58:50;100630.25;;;26.25;45.66
9335;BME280;4706;41.844;26.082;2022-08-11T03:01:57;100628.28;;;26.19;45.77
9335;BME280;4706;41.844;26.082;2022-08-11T03:04:37;100628.28;;;26.11;45.82
9335;BME280;4706;41.844;26.082;2022-08-11T03:07:35;100623.03;;;26.10;46.08
9335;BME280;4706;41.844;26.082;2022-08-11T03:11:06;100628.66;;;26.21;45.85
9335;BME280;4706;41.844;26.082;2022-08-11T03:13:33;100630.66;;;26.31;45.87
9335;BME280;4706;41.844;26.082;2022-08-11T03:16:56;100625.81;;;26.28;45.97
9335;BME280;4706;41.844;26.082;2022-08-11T03:19:29;100627.81;;;26.34;45.51
9335;BME280;4706;41.844;26.082;2022-08-11T03:22:01;100627.06;;;26.23;46.00
9335;BME280;4706;41.844;26.082;2022-08-11T03:28:03;100632.34;;;26.00;46.58
9335;BME280;4706;41.844;26.082;2022-08-11T03:30:26;100633.13;;;26.04;46.84
9335;BME280;4706;41.844;26.082;2022-08-11T03:33:18;100633.53;;;25.99;46.90
9335;BME280;4706;41.844;26.082;2022-08-11T03:36:14;100640.81;;;26.00;46.96
9335;BME280;4706;41.844;26.082;2022-08-11T03:41:51;100639.16;;;25.95;46.68
9335;BME280;4706;41.844;26.082;2022-08-11T03:49:56;100646.81;;;26.02;46.96
9335;BME280;4706;41.844;26.082;2022-08-11T04:01:17;100647.22;;;26.11;46.71
9335;BME280;4706;41.844;26.082;2022-08-11T04:34:40;100649.75;;;26.97;45.23
9335;BME280;4706;41.844;26.082;2022-08-11T04:55:06;100644.28;;;27.90;43.06
9335;BME280;4706;41.844;26.082;2022-08-11T05:01:19;100648.84;;;28.22;42.20
9335;BME280;4706;41.844;26.082;2022-08-11T05:13:02;100636.59;;;28.70;40.93
9335;BME280;4706;41.844;26.082;2022-08-11T05:15:53;100647.97;;;28.66;40.67
9335;BME280;4706;41.844;26.082;2022-08-11T05:18:56;100629.38;;;28.65;41.19
9335;BME280;4706;41.844;26.082;2022-08-11T05:21:46;100646.38;;;28.92;40.64
9335;BME280;4706;41.844;26.082;2022-08-11T05:24:41;100640.47;;;29.14;39.98
9335;BME280;4706;41.844;26.082;2022-08-11T05:27:51;100643.47;;;29.30;39.14
9335;BME280;4706;41.844;26.082;2022-08-11T05:30:40;100655.31;;;29.48;38.59
9335;BME280;4706;41.844;26.082;2022-08-11T05:33:37;100642.53;;;29.64;38.32
9335;BME280;4706;41.844;26.082;2022-08-11T05:36:59;100640.66;;;29.81;37.91
9335;BME280;4706;41.844;26.082;2022-08-11T05:39:21;100631.03;;;29.98;37.66
9335;BME280;4706;41.844;26.082;2022-08-11T05:42:07;100636.56;;;30.05;37.25
9335;BME280;4706;41.844;26.082;2022-08-11T05:45:00;100631.09;;;30.18;37.16
9335;BME280;4706;41.844;26.082;2022-08-11T05:47:50;100640.34;;;30.42;36.43
9335;BME280;4706;41.844;26.082;2022-08-11T05:50:35;100635.91;;;30.61;36.57
9335;BME280;4706;41.844;26.082;2022-08-11T05:53:20;100633.16;;;30.77;35.82
9335;BME280;4706;41.844;26.082;2022-08-11T05:56:05;100633.03;;;30.84;35.59
9335;BME280;4706;41.844;26.082;2022-08-11T05:58:51;100637.94;;;30.80;35.63
9335;BME280;4706;41.844;26.082;2022-08-11T06:01:32;100627.75;;;30.63;35.92
9335;BME280;4706;41.844;26.082;2022-08-11T06:04:04;100637.44;;;30.45;36.59
9335;BME280;4706;41.844;26.082;2022-08-11T06:09:27;100631.44;;;30.20;37.11
9335;BME280;4706;41.844;26.082;2022-08-11T06:11:58;100632.28;;;30.20;36.79
9335;BME280;4706;41.844;26.082;2022-08-11T06:14:24;100630.81;;;30.09;37.25
9335;BME280;4706;41.844;26.082;2022-08-11T06:16:55;100624.50;;;30.24;36.94
9335;BME280;4706;41.844;26.082;2022-08-11T06:19:31;100621.84;;;30.34;36.92
9335;BME280;4706;41.844;26.082;2022-08-11T06:21:57;100624.84;;;30.46;36.46
9335;BME280;4706;41.844;26.082;2022-08-11T06:24:24;100619.88;;;30.70;36.04
9335;BME280;4706;41.844;26.082;2022-08-11T06:26:53;100627.41;;;30.81;35.33
9335;BME280;4706;41.844;26.082;2022-08-11T06:29:21;100624.31;;;30.91;34.23
9335;BME280;4706;41.844;26.082;2022-08-11T06:32:00;100629.03;;;30.98;34.56
9335;BME280;4706;41.844;26.082;2022-08-11T06:40:12;100631.03;;;31.17;34.08
9335;BME280;4706;41.844;26.082;2022-08-11T06:42:52;100624.38;;;31.24;33.82
9335;BME280;4706;41.844;26.082;2022-08-11T06:48:05;100636.94;;;31.43;33.75
9335;BME280;4706;41.844;26.082;2022-08-11T06:50:37;100637.75;;;31.43;33.28
9335;BME280;4706;41.844;26.082;2022-08-11T06:53:21;100629.25;;;31.60;32.92
9335;BME280;4706;41.844;26.082;2022-08-11T06:55:48;100636.88;;;31.96;33.14
9335;BME280;4706;41.844;26.082;2022-08-11T06:58:40;100642.31;;;32.35;32.47
9335;BME280;4706;41.844;26.082;2022-08-11T07:04:27;100644.59;;;32.82;31.21
9335;BME280;4706;41.844;26.082;2022-08-11T07:16:24;100647.09;;;33.60;29.72
9335;BME280;4706;41.844;26.082;2022-08-11T07:18:51;100647.28;;;33.79;29.29
9335;BME280;4706;41.844;26.082;2022-08-11T07:21:40;100651.56;;;34.09;28.93
9335;BME280;4706;41.844;26.082;2022-08-11T07:24:27;100642.69;;;34.29;28.81
9335;BME280;4706;41.844;26.082;2022-08-11T07:27:17;100647.09;;;34.43;28.57
9335;BME280;4706;41.844;26.082;2022-08-11T07:30:07;100644.50;;;34.36;28.48
9335;BME280;4706;41.844;26.082;2022-08-11T07:32:40;100644.38;;;34.39;28.70
9335;BME280;4706;41.844;26.082;2022-08-11T07:35:11;100645.47;;;34.54;28.18
9335;BME280;4706;41.844;26.082;2022-08-11T07:37:42;100637.28;;;34.66;28.15
9335;BME280;4706;41.844;26.082;2022-08-11T07:40:12;100637.25;;;34.88;27.81
9335;BME280;4706;41.844;26.082;2022-08-11T07:42:40;100641.41;;;34.96;27.73
9335;BME280;4706;41.844;26.082;2022-08-11T07:45:11;100629.06;;;34.99;27.03
9335;BME280;4706;41.844;26.082;2022-08-11T07:48:00;100637.31;;;34.75;28.16
9335;BME280;4706;41.844;26.082;2022-08-11T07:50:45;100640.16;;;34.97;27.54
9335;BME280;4706;41.844;26.082;2022-08-11T07:53:30;100630.88;;;35.06;27.17
9335;BME280;4706;41.844;26.082;2022-08-11T07:55:59;100631.38;;;35.13;27.05
9335;BME280;4706;41.844;26.082;2022-08-11T07:58:26;100644.28;;;35.27;26.96
9335;BME280;4706;41.844;26.082;2022-08-11T08:01:12;100638.47;;;35.49;26.97
9335;BME280;4706;41.844;26.082;2022-08-11T08:04:01;100632.38;;;35.78;27.25
9335;BME280;4706;41.844;26.082;2022-08-11T08:06:45;100621.56;;;35.91;25.94
9335;BME280;4706;41.844;26.082;2022-08-11T08:09:33;100630.22;;;36.10;25.63
9335;BME280;4706;41.844;26.082;2022-08-11T08:12:23;100639.28;;;36.36;25.77
9335;BME280;4706;41.844;26.082;2022-08-11T08:15:09;100627.69;;;36.49;25.19
9335;BME280;4706;41.844;26.082;2022-08-11T08:17:56;100634.47;;;36.69;24.88
9335;BME280;4706;41.844;26.082;2022-08-11T08:20:36;100630.84;;;36.60;24.93
9335;BME280;4706;41.844;26.082;2022-08-11T08:23:03;100628.09;;;36.75;24.85
9335;BME280;4706;41.844;26.082;2022-08-11T08:25:31;100626.97;;;36.81;24.98
9335;BME280;4706;41.844;26.082;2022-08-11T08:27:59;100626.78;;;36.94;24.98
9335;BME280;4706;41.844;26.082;2022-08-11T08:30:26;100620.81;;;37.16;25.01
9335;BME280;4706;41.844;26.082;2022-08-11T08:33:13;100623.63;;;36.83;23.62
9335;BME280;4706;41.844;26.082;2022-08-11T08:35:40;100608.72;;;36.33;24.54
9335;BME280;4706;41.844;26.082;2022-08-11T08:38:06;100613.81;;;36.10;24.90
9335;BME280;4706;41.844;26.082;2022-08-11T08:40:32;100610.97;;;36.10;25.13
9335;BME280;4706;41.844;26.082;2022-08-11T08:43:04;100601.09;;;36.02;25.43
9335;BME280;4706;41.844;26.082;2022-08-11T08:45:33;100606.81;;;36.02;25.48
9335;BME280;4706;41.844;26.082;2022-08-11T08:48:15;100610.50;;;36.30;25.15
9335;BME280;4706;41.844;26.082;2022-08-11T08:50:47;100610.63;;;36.17;24.83
9335;BME280;4706;41.844;26.082;2022-08-11T08:53:34;100606.16;;;35.80;25.41
9335;BME280;4706;41.844;26.082;2022-08-11T08:56:03;100585.78;;;35.59;25.62
9335;BME280;4706;41.844;26.082;2022-08-11T08:58:34;100595.94;;;35.60;25.38
9335;BME280;4706;41.844;26.082;2022-08-11T09:01:00;100588.00;;;35.55;25.29
9335;BME280;4706;41.844;26.082;2022-08-11T09:03:26;100596.13;;;35.75;25.79
9335;BME280;4706;41.844;26.082;2022-08-11T09:05:53;100582.63;;;35.94;26.00
9335;BME280;4706;41.844;26.082;2022-08-11T09:08:21;100589.78;;;36.35;25.34
9335;BME280;4706;41.844;26.082;2022-08-11T09:10:48;100583.34;;;36.77;24.09
9335;BME280;4706;41.844;26.082;2022-08-11T09:13:34;100561.47;;;36.89;23.94
9335;BME280;4706;41.844;26.082;2022-08-11T09:16:02;100575.31;;;37.09;24.58
9335;BME280;4706;41.844;26.082;2022-08-11T09:18:30;100583.72;;;37.46;23.85
9335;BME280;4706;41.844;26.082;2022-08-11T09:20:56;100573.81;;;37.71;23.68
9335;BME280;4706;41.844;26.082;2022-08-11T09:23:23;100585.03;;;38.07;23.17
9335;BME280;4706;41.844;26.082;2022-08-11T09:26:08;100590.00;;;38.07;22.69
9335;BME280;4706;41.844;26.082;2022-08-11T09:28:54;100574.31;;;37.69;22.67
9335;BME280;4706;41.844;26.082;2022-08-11T09:31:20;100574.66;;;37.86;22.99
9335;BME280;4706;41.844;26.082;2022-08-11T09:33:50;100565.22;;;37.71;22.76
9335;BME280;4706;41.844;26.082;2022-08-11T09:36:17;100567.34;;;37.85;22.43
9335;BME280;4706;41.844;26.082;2022-08-11T09:39:01;100566.44;;;36.98;23.26
9335;BME280;4706;41.844;26.082;2022-08-11T09:41:48;100566.94;;;36.78;23.18
9335;BME280;4706;41.844;26.082;2022-08-11T09:44:14;100551.06;;;36.67;23.37
9335;BME280;4706;41.844;26.082;2022-08-11T09:46:59;100555.06;;;37.03;23.32
9335;BME280;4706;41.844;26.082;2022-08-11T09:49:26;100551.97;;;37.49;23.46
9335;BME280;4706;41.844;26.082;2022-08-11T09:51:53;100552.97;;;37.85;22.24
9335;BME280;4706;41.844;26.082;2022-08-11T09:54:22;100554.31;;;37.75;22.30
9335;BME280;4706;41.844;26.082;2022-08-11T09:56:51;100552.47;;;37.86;23.19
9335;BME280;4706;41.844;26.082;2022-08-11T09:59:36;100546.72;;;38.25;22.68
9335;BME280;4706;41.844;26.082;2022-08-11T10:02:03;100533.66;;;38.54;22.20
9335;BME280;4706;41.844;26.082;2022-08-11T10:04:37;100534.53;;;38.90;22.16
9335;BME280;4706;41.844;26.082;2022-08-11T10:07:05;100526.31;;;39.18;21.77
9335;BME280;4706;41.844;26.082;2022-08-11T10:09:39;100546.00;;;39.40;20.79
9335;BME280;4706;41.844;26.082;2022-08-11T10:12:13;100542.09;;;38.87;20.97
9335;BME280;4706;41.844;26.082;2022-08-11T10:14:44;100540.97;;;38.84;21.53
9335;BME280;4706;41.844;26.082;2022-08-11T10:17:32;100545.09;;;39.13;21.41
9335;BME280;4706;41.844;26.082;2022-08-11T10:20:00;100535.81;;;39.39;21.39
9335;BME280;4706;41.844;26.082;2022-08-11T10:22:33;100525.84;;;39.60;21.21
9335;BME280;4706;41.844;26.082;2022-08-11T10:25:19;100537.56;;;39.97;20.95
9335;BME280;4706;41.844;26.082;2022-08-11T10:28:06;100530.88;;;40.06;20.38
9335;BME280;4706;41.844;26.082;2022-08-11T10:30:34;100525.03;;;40.00;20.25
9335;BME280;4706;41.844;26.082;2022-08-11T10:33:18;100526.94;;;39.83;20.87
9335;BME280;4706;41.844;26.082;2022-08-11T10:36:04;100518.03;;;39.40;20.71
9335;BME280;4706;41.844;26.082;2022-08-11T10:38:32;100513.81;;;39.21;21.12
9335;BME280;4706;41.844;26.082;2022-08-11T10:40:58;100513.81;;;39.21;20.65
9335;BME280;4706;41.844;26.082;2022-08-11T10:43:45;100507.47;;;39.17;21.91
9335;BME280;4706;41.844;26.082;2022-08-11T10:46:12;100514.59;;;39.21;21.15
9335;BME280;4706;41.844;26.082;2022-08-11T10:48:57;100509.81;;;39.53;21.10
9335;BME280;4706;41.844;26.082;2022-08-11T10:51:26;100514.75;;;39.94;20.82
9335;BME280;4706;41.844;26.082;2022-08-11T10:54:11;100507.22;;;40.02;19.68
9335;BME280;4706;41.844;26.082;2022-08-11T10:56:57;100494.56;;;40.14;20.17
9335;BME280;4706;41.844;26.082;2022-08-11T10:59:42;100492.16;;;40.39;20.39
9335;BME280;4706;41.844;26.082;2022-08-11T11:02:12;100500.28;;;40.66;19.82
9335;BME280;4706;41.844;26.082;2022-08-11T11:08:10;100499.47;;;41.03;19.14
9335;BME280;4706;41.844;26.082;2022-08-11T11:10:57;100486.91;;;40.69;19.93
9335;BME280;4706;41.844;26.082;2022-08-11T11:13:24;100500.63;;;40.80;19.32
9335;BME280;4706;41.844;26.082;2022-08-11T11:16:11;100486.44;;;40.76;18.57
9335;BME280;4706;41.844;26.082;2022-08-11T11:19:10;100484.88;;;40.81;18.54
9335;BME280;4706;41.844;26.082;2022-08-11T11:21:39;100483.34;;;40.85;18.79
9335;BME280;4706;41.844;26.082;2022-08-11T11:29:31;100478.81;;;40.73;19.54
9335;BME280;4706;41.844;26.082;2022-08-11T11:37:41;100477.16;;;41.52;18.68
9335;BME280;4706;41.844;26.082;2022-08-11T11:40:12;100476.19;;;41.78;18.21
9335;BME280;4706;41.844;26.082;2022-08-11T11:42:39;100471.00;;;41.87;18.00
9335;BME280;4706;41.844;26.082;2022-08-11T11:45:07;100481.44;;;41.73;17.93
9335;BME280;4706;41.844;26.082;2022-08-11T11:47:34;100476.63;;;40.99;18.42
9335;BME280;4706;41.844;26.082;2022-08-11T11:50:01;100464.66;;;40.12;19.20
9335;BME280;4706;41.844;26.082;2022-08-11T11:52:27;100465.78;;;39.47;19.71
9335;BME280;4706;41.844;26.082;2022-08-11T11:54:55;100468.94;;;39.49;20.13
9335;BME280;4706;41.844;26.082;2022-08-11T11:57:21;100464.34;;;39.57;20.74
9335;BME280;4706;41.844;26.082;2022-08-11T12:00:09;100457.16;;;39.47;20.04
9335;BME280;4706;41.844;26.082;2022-08-11T12:02:55;100445.91;;;39.70;19.51
9335;BME280;4706;41.844;26.082;2022-08-11T12:05:23;100444.16;;;39.78;19.66
9335;BME280;4706;41.844;26.082;2022-08-11T12:07:49;100445.38;;;39.97;19.64
9335;BME280;4706;41.844;26.082;2022-08-11T12:10:34;100435.44;;;39.98;19.85
9335;BME280;4706;41.844;26.082;2022-08-11T12:13:01;100432.72;;;39.84;20.50
9335;BME280;4706;41.844;26.082;2022-08-11T12:15:46;100440.88;;;39.44;20.11
9335;BME280;4706;41.844;26.082;2022-08-11T12:18:14;100440.28;;;38.64;20.86
9335;BME280;4706;41.844;26.082;2022-08-11T12:20:41;100439.94;;;38.27;21.64
9335;BME280;4706;41.844;26.082;2022-08-11T12:23:10;100445.50;;;38.15;21.96
9335;BME280;4706;41.844;26.082;2022-08-11T12:25:56;100435.09;;;38.33;21.88
9335;BME280;4706;41.844;26.082;2022-08-11T12:28:43;100430.09;;;38.63;21.18
9335;BME280;4706;41.844;26.082;2022-08-11T12:31:09;100428.72;;;38.44;21.16
9335;BME280;4706;41.844;26.082;2022-08-11T12:33:36;100433.09;;;38.39;21.73
9335;BME280;4706;41.844;26.082;2022-08-11T12:36:03;100433.63;;;38.37;21.58
9335;BME280;4706;41.844;26.082;2022-08-11T12:38:29;100418.34;;;38.17;21.68
9335;BME280;4706;41.844;26.082;2022-08-11T12:40:57;100433.31;;;38.06;21.08
9335;BME280;4706;41.844;26.082;2022-08-11T12:43:44;100418.31;;;37.87;21.92
9335;BME280;4706;41.844;26.082;2022-08-11T12:46:34;100424.22;;;37.93;22.06
9335;BME280;4706;41.844;26.082;2022-08-11T12:49:11;100415.69;;;37.98;21.34
9335;BME280;4706;41.844;26.082;2022-08-11T12:51:57;100416.75;;;37.86;21.54
9335;BME280;4706;41.844;26.082;2022-08-11T12:57:14;100421.56;;;37.65;21.85
9335;BME280;4706;41.844;26.082;2022-08-11T12:59:59;100422.06;;;37.49;22.16
9335;BME280;4706;41.844;26.082;2022-08-11T13:02:45;100421.47;;;37.21;22.45
9335;BME280;4706;41.844;26.082;2022-08-11T13:05:30;100420.19;;;37.22;22.62
9335;BME280;4706;41.844;26.082;2022-08-11T13:07:59;100412.91;;;36.87;23.02
9335;BME280;4706;41.844;26.082;2022-08-11T13:10:26;100419.78;;;36.57;23.20
9335;BME280;4706;41.844;26.082;2022-08-11T13:13:12;100413.78;;;36.79;23.30
9335;BME280;4706;41.844;26.082;2022-08-11T13:15:38;100412.69;;;37.00;23.20
9335;BME280;4706;41.844;26.082;2022-08-11T13:18:04;100402.88;;;37.31;22.18
9335;BME280;4706;41.844;26.082;2022-08-11T13:20:34;100407.72;;;37.25;22.02
9335;BME280;4706;41.844;26.082;2022-08-11T13:23:00;100400.53;;;37.29;22.18
9335;BME280;4706;41.844;26.082;2022-08-11T13:25:29;100395.53;;;37.15;21.77
9335;BME280;4706;41.844;26.082;2022-08-11T13:27:57;100399.31;;;37.21;22.29
9335;BME280;4706;41.844;26.082;2022-08-11T13:30:29;100404.50;;;37.32;22.22
9335;BME280;4706;41.844;26.082;2022-08-11T13:33:14;100389.13;;;36.96;22.32
9335;BME280;4706;41.844;26.082;2022-08-11T13:35:44;100405.09;;;37.12;22.50
9335;BME280;4706;41.844;26.082;2022-08-11T13:38:10;100402.66;;;37.19;22.65
9335;BME280;4706;41.844;26.082;2022-08-11T13:40:39;100399.31;;;36.97;22.75
9335;BME280;4706;41.844;26.082;2022-08-11T13:43:05;100407.28;;;36.93;23.17
9335;BME280;4706;41.844;26.082;2022-08-11T13:45:34;100366.91;;;36.82;22.97
9335;BME280;4706;41.844;26.082;2022-08-11T13:48:02;100402.13;;;37.06;22.87
9335;BME280;4706;41.844;26.082;2022-08-11T13:50:31;100398.34;;;37.00;22.62
9335;BME280;4706;41.844;26.082;2022-08-11T13:53:21;100401.56;;;36.69;22.42
9335;BME280;4706;41.844;26.082;2022-08-11T13:55:47;100400.84;;;36.41;22.77
9335;BME280;4706;41.844;26.082;2022-08-11T13:58:14;100397.25;;;36.31;23.24
9335;BME280;4706;41.844;26.082;2022-08-11T14:00:44;100386.47;;;36.26;23.25
9335;BME280;4706;41.844;26.082;2022-08-11T14:03:11;100391.19;;;36.38;22.95
9335;BME280;4706;41.844;26.082;2022-08-11T14:05:40;100381.13;;;36.43;23.29
9335;BME280;4706;41.844;26.082;2022-08-11T14:08:09;100375.19;;;36.56;22.76
9335;BME280;4706;41.844;26.082;2022-08-11T14:10:37;100376.47;;;36.55;22.67
9335;BME280;4706;41.844;26.082;2022-08-11T14:13:09;100378.88;;;36.56;23.27
9335;BME280;4706;41.844;26.082;2022-08-11T14:16:00;100376.72;;;36.66;23.60
9335;BME280;4706;41.844;26.082;2022-08-11T14:18:30;100383.69;;;36.50;22.74
9335;BME280;4706;41.844;26.082;2022-08-11T14:20:58;100388.34;;;36.29;23.04
9335;BME280;4706;41.844;26.082;2022-08-11T14:23:45;100388.13;;;35.99;23.54
9335;BME280;4706;41.844;26.082;2022-08-11T14:26:13;100388.31;;;35.87;23.82
9335;BME280;4706;41.844;26.082;2022-08-11T14:29:10;100385.63;;;35.83;23.72
9335;BME280;4706;41.844;26.082;2022-08-11T14:31:44;100381.13;;;35.91;23.98
9335;BME280;4706;41.844;26.082;2022-08-11T14:34:11;100396.25;;;35.92;23.57
9335;BME280;4706;41.844;26.082;2022-08-11T14:36:43;100395.81;;;35.75;23.76
9335;BME280;4706;41.844;26.082;2022-08-11T14:39:15;100365.03;;;35.51;23.78
9335;BME280;4706;41.844;26.082;2022-08-11T14:41:47;100389.34;;;35.56;24.08
9335;BME280;4706;41.844;26.082;2022-08-11T14:44:35;100394.88;;;35.41;24.36
9335;BME280;4706;41.844;26.082;2022-08-11T14:47:20;100381.22;;;35.36;24.77
9335;BME280;4706;41.844;26.082;2022-08-11T14:49:47;100380.91;;;35.34;23.85
9335;BME280;4706;41.844;26.082;2022-08-11T14:52:17;100379.00;;;35.22;24.42
9335;BME280;4706;41.844;26.082;2022-08-11T14:54:48;100376.88;;;34.95;24.65
9335;BME280;4706;41.844;26.082;2022-08-11T14:57:38;100371.34;;;35.00;24.67
9335;BME280;4706;41.844;26.082;2022-08-11T15:00:07;100374.84;;;35.04;24.72
9335;BME280;4706;41.844;26.082;2022-08-11T15:02:38;100378.47;;;34.96;25.07
9335;BME280;4706;41.844;26.082;2022-08-11T15:05:26;100379.75;;;34.95;24.66
9335;BME280;4706;41.844;26.082;2022-08-11T15:07:54;100375.13;;;34.88;25.02
9335;BME280;4706;41.844;26.082;2022-08-11T15:10:20;100380.50;;;34.77;24.88
9335;BME280;4706;41.844;26.082;2022-08-11T15:12:47;100377.31;;;34.66;24.88
9335;BME280;4706;41.844;26.082;2022-08-11T15:15:14;100364.81;;;34.41;25.34
9335;BME280;4706;41.844;26.082;2022-08-11T15:18:02;100379.50;;;34.21;25.71
9335;BME280;4706;41.844;26.082;2022-08-11T15:20:30;100374.88;;;34.15;25.72
9335;BME280;4706;41.844;26.082;2022-08-11T15:23:14;100377.22;;;34.07;25.79
9335;BME280;4706;41.844;26.082;2022-08-11T15:26:03;100376.13;;;34.04;25.87
9335;BME280;4706;41.844;26.082;2022-08-11T15:28:33;100378.34;;;34.10;25.82
9335;BME280;4706;41.844;26.082;2022-08-11T15:31:22;100371.41;;;34.20;26.02
9335;BME280;4706;41.844;26.082;2022-08-11T15:33:54;100382.56;;;34.27;25.80
9335;BME280;4706;41.844;26.082;2022-08-11T15:36:40;100376.38;;;34.28;26.18
9335;BME280;4706;41.844;26.082;2022-08-11T15:39:37;100374.63;;;34.31;25.74
9335;BME280;4706;41.844;26.082;2022-08-11T15:42:24;100384.72;;;34.14;26.08
9335;BME280;4706;41.844;26.082;2022-08-11T15:45:08;100385.19;;;33.90;26.12
9335;BME280;4706;41.844;26.082;2022-08-11T15:47:55;100385.88;;;33.72;26.33
9335;BME280;4706;41.844;26.082;2022-08-11T15:50:24;100380.00;;;33.67;26.69
9335;BME280;4706;41.844;26.082;2022-08-11T15:52:58;100379.06;;;33.48;26.54
9335;BME280;4706;41.844;26.082;2022-08-11T15:55:26;100382.81;;;33.45;26.74
9335;BME280;4706;41.844;26.082;2022-08-11T15:57:54;100380.66;;;33.49;26.80
9335;BME280;4706;41.844;26.082;2022-08-11T16:00:44;100380.66;;;33.36;26.85
9335;BME280;4706;41.844;26.082;2022-08-11T16:03:31;100377.75;;;33.27;26.78
9335;BME280;4706;41.844;26.082;2022-08-11T16:06:18;100381.41;;;33.27;26.71
9335;BME280;4706;41.844;26.082;2022-08-11T16:08:45;100386.00;;;33.12;26.77
9335;BME280;4706;41.844;26.082;2022-08-11T16:11:12;100386.63;;;33.07;27.25
9335;BME280;4706;41.844;26.082;2022-08-11T16:13:39;100389.78;;;33.09;27.15
9335;BME280;4706;41.844;26.082;2022-08-11T16:16:07;100388.50;;;33.23;27.08
9335;BME280;4706;41.844;26.082;2022-08-11T16:18:45;100401.59;;;33.20;27.32
9335;BME280;4706;41.844;26.082;2022-08-11T16:21:20;100395.91;;;33.20;27.30
9335;BME280;4706;41.844;26.082;2022-08-11T16:23:51;100402.38;;;33.21;27.50
9335;BME280;4706;41.844;26.082;2022-08-11T16:26:20;100390.81;;;33.02;27.32
9335;BME280;4706;41.844;26.082;2022-08-11T16:28:51;100410.44;;;33.00;27.55
9335;BME280;4706;41.844;26.082;2022-08-11T16:31:23;100408.63;;;32.94;28.07
9335;BME280;4706;41.844;26.082;2022-08-11T16:33:50;100421.38;;;32.89;27.75
9335;BME280;4706;41.844;26.082;2022-08-11T16:36:18;100414.09;;;33.01;27.55
9335;BME280;4706;41.844;26.082;2022-08-11T16:39:04;100426.63;;;33.03;27.64
9335;BME280;4706;41.844;26.082;2022-08-11T16:41:33;100422.28;;;33.11;27.57
9335;BME280;4706;41.844;26.082;2022-08-11T16:44:19;100425.47;;;33.01;27.48
9335;BME280;4706;41.844;26.082;2022-08-11T16:47:11;100423.78;;;33.03;27.26
9335;BME280;4706;41.844;26.082;2022-08-11T16:49:42;100423.09;;;32.99;27.71
9335;BME280;4706;41.844;26.082;2022-08-11T16:52:08;100425.28;;;32.95;27.87
9335;BME280;4706;41.844;26.082;2022-08-11T16:54:37;100411.94;;;32.79;27.80
9335;BME280;4706;41.844;26.082;2022-08-11T16:57:06;100430.63;;;32.80;27.75
9335;BME280;4706;41.844;26.082;2022-08-11T16:59:53;100437.00;;;32.84;27.73
9335;BME280;4706;41.844;26.082;2022-08-11T17:02:23;100445.91;;;32.74;27.88
9335;BME280;4706;41.844;26.082;2022-08-11T17:05:16;100444.97;;;32.64;27.87
9335;BME280;4706;41.844;26.082;2022-08-11T17:08:04;100441.81;;;32.62;28.24
9335;BME280;4706;41.844;26.082;2022-08-11T17:11:00;100445.69;;;32.55;28.15
9335;BME280;4706;41.844;26.082;2022-08-11T17:13:49;100458.66;;;32.56;28.15
9335;BME280;4706;41.844;26.082;2022-08-11T17:16:21;100456.28;;;32.55;28.14
9335;BME280;4706;41.844;26.082;2022-08-11T17:18:58;100453.44;;;32.55;28.39
9335;BME280;4706;41.844;26.082;2022-08-11T17:21:28;100456.03;;;32.49;28.70
9335;BME280;4706;41.844;26.082;2022-08-11T17:24:00;100452.16;;;32.56;28.68
9335;BME280;4706;41.844;26.082;2022-08-11T17:26:34;100457.53;;;32.67;27.97
9335;BME280;4706;41.844;26.082;2022-08-11T17:29:32;100463.00;;;32.74;28.49
9335;BME280;4706;41.844;26.082;2022-08-11T17:32:00;100463.88;;;32.83;27.99
9335;BME280;4706;41.844;26.082;2022-08-11T17:34:46;100460.13;;;32.86;28.28